createdAt,value
2019-05-22T00:00:43.079Z,12.20
2019-05-22T00:03:17.563Z,12.20
2019-05-22T00:05:47.944Z,12.10
2019-05-22T00:08:19.531Z,12.00
2019-05-22T00:10:50.601Z,12.00
2019-05-22T00:13:22.903Z,11.90
2019-05-22T00:15:54.552Z,11.90
2019-05-22T00:18:25.155Z,11.90
2019-05-22T00:20:57.126Z,11.80
2019-05-22T00:23:28.607Z,11.80
2019-05-22T00:26:00.159Z,11.70
2019-05-22T00:28:31.951Z,11.70
2019-05-22T00:31:03.138Z,11.70
2019-05-22T00:33:36.379Z,11.60
2019-05-22T00:36:08.246Z,11.60
2019-05-22T00:38:40.202Z,11.50
2019-05-22T00:41:11.869Z,11.50
2019-05-22T00:43:44.664Z,11.40
2019-05-22T00:46:20.604Z,11.40
2019-05-22T00:48:52.180Z,11.30
2019-05-22T00:51:40.249Z,11.30
2019-05-22T00:54:29.671Z,11.30
2019-05-22T00:57:17.577Z,11.20
2019-05-22T00:59:50.921Z,11.20
2019-05-22T01:02:26.927Z,11.10
2019-05-22T01:04:58.535Z,11.10
2019-05-22T01:07:30.515Z,11.10
2019-05-22T01:10:03.735Z,11.10
2019-05-22T01:12:42.443Z,11.20
2019-05-22T01:15:15.552Z,11.10
2019-05-22T01:17:47.484Z,11.10
2019-05-22T01:20:19.435Z,11.10
2019-05-22T01:22:51.384Z,11.10
2019-05-22T01:25:22.730Z,11.10
2019-05-22T01:27:53.477Z,11.20
2019-05-22T01:30:45.645Z,11.20
2019-05-22T01:33:21.579Z,11.20
2019-05-22T01:36:22.057Z,11.20
2019-05-22T01:38:56.191Z,11.10
2019-05-22T01:41:30.306Z,11.20
2019-05-22T01:44:03.227Z,11.10
2019-05-22T01:46:36.573Z,11.20
2019-05-22T01:49:10.063Z,11.20
2019-05-22T01:51:42.499Z,11.20
2019-05-22T01:54:14.876Z,11.20
2019-05-22T01:56:45.962Z,11.20
2019-05-22T01:59:18.026Z,11.20
2019-05-22T02:01:48.950Z,11.10
2019-05-22T02:04:19.723Z,11.10
2019-05-22T02:06:51.148Z,11.10
2019-05-22T02:09:30.614Z,11.10
2019-05-22T02:12:15.828Z,11.20
2019-05-22T02:14:48.206Z,11.20
2019-05-22T02:17:19.262Z,11.30
2019-05-22T02:19:50.151Z,11.40
2019-05-22T02:22:20.597Z,11.50
2019-05-22T02:24:51.891Z,11.60
2019-05-22T02:27:24.247Z,11.60
2019-05-22T02:29:55.659Z,11.60
2019-05-22T02:32:26.428Z,11.60
2019-05-22T02:34:57.572Z,11.60
2019-05-22T02:37:30.066Z,11.60
2019-05-22T02:40:01.336Z,11.70
2019-05-22T02:42:32.958Z,11.70
2019-05-22T02:45:04.897Z,11.70
2019-05-22T02:47:36.847Z,11.60
2019-05-22T02:50:08.103Z,11.60
2019-05-22T02:52:38.470Z,11.60
2019-05-22T02:55:09.017Z,11.70
2019-05-22T02:57:39.507Z,11.70
2019-05-22T03:00:10.970Z,11.70
2019-05-22T03:02:48.107Z,11.80
2019-05-22T03:05:19.007Z,11.90
2019-05-22T03:07:49.672Z,12.00
2019-05-22T03:10:22.620Z,12.00
2019-05-22T03:12:52.984Z,12.00
2019-05-22T03:15:25.727Z,11.90
2019-05-22T03:18:01.967Z,11.90
2019-05-22T03:20:33.245Z,11.80
2019-05-22T03:23:37.869Z,11.80
2019-05-22T03:26:10.411Z,11.70
2019-05-22T03:28:42.069Z,11.80
2019-05-22T03:31:13.627Z,11.70
2019-05-22T03:33:44.502Z,11.70
2019-05-22T03:36:20.915Z,11.80
2019-05-22T03:38:51.735Z,11.80
2019-05-22T03:41:22.959Z,11.70
2019-05-22T03:43:55.520Z,11.70
2019-05-22T03:46:35.867Z,11.60
2019-05-22T03:49:07.824Z,11.60
2019-05-22T03:51:38.272Z,11.50
2019-05-22T03:54:09.306Z,11.40
2019-05-22T03:56:43.842Z,11.40
2019-05-22T03:59:15.297Z,11.40
2019-05-22T04:01:45.757Z,11.50
2019-05-22T04:04:35.387Z,11.60
2019-05-22T04:07:08.501Z,11.60
2019-05-22T04:09:40.113Z,11.70
2019-05-22T04:12:11.584Z,11.70
2019-05-22T04:14:42.307Z,11.80
2019-05-22T04:17:13.407Z,11.90
2019-05-22T04:19:50.357Z,12.00
2019-05-22T04:22:18.084Z,12.20
2019-05-22T04:24:49.061Z,12.40
2019-05-22T04:27:20.192Z,12.70
2019-05-22T04:29:52.509Z,13.10
2019-05-22T04:32:36.067Z,13.40
2019-05-22T04:35:09.277Z,13.90
2019-05-22T04:37:40.757Z,14.20
2019-05-22T04:40:47.565Z,14.60
2019-05-22T04:43:23.794Z,15.10
2019-05-22T04:45:56.919Z,15.60
2019-05-22T04:48:29.336Z,16.00
2019-05-22T04:51:22.580Z,16.30
2019-05-22T04:53:53.531Z,16.60
2019-05-22T04:56:24.682Z,16.80
2019-05-22T04:58:55.446Z,16.90
2019-05-22T05:01:26.601Z,17.00
2019-05-22T05:03:57.467Z,17.30
2019-05-22T05:06:29.738Z,17.60
2019-05-22T05:09:00.402Z,17.80
2019-05-22T05:11:30.700Z,17.90
2019-05-22T05:14:01.056Z,17.90
2019-05-22T05:16:31.550Z,17.90
2019-05-22T05:19:02.062Z,17.90
2019-05-22T05:21:32.415Z,17.90
2019-05-22T05:24:02.758Z,18.00
2019-05-22T05:26:34.533Z,17.80
2019-05-22T05:29:05.206Z,17.90
2019-05-22T05:31:35.574Z,18.00
2019-05-22T05:34:19.867Z,18.10
2019-05-22T05:36:50.411Z,18.40
2019-05-22T05:40:09.472Z,19.00
2019-05-22T05:42:40.121Z,19.30
2019-05-22T05:45:13.552Z,19.60
2019-05-22T05:47:44.260Z,19.80
2019-05-22T05:50:16.534Z,19.90
2019-05-22T05:52:47.283Z,19.70
2019-05-22T05:55:18.975Z,19.50
2019-05-22T05:58:23.598Z,19.30
2019-05-22T06:00:57.627Z,19.00
2019-05-22T06:03:33.630Z,18.80
2019-05-22T06:06:12.388Z,18.70
2019-05-22T06:08:43.782Z,18.50
2019-05-22T06:11:49.072Z,18.40
2019-05-22T06:14:20.671Z,18.20
2019-05-22T06:17:36.312Z,18.20
2019-05-22T06:20:11.763Z,18.10
2019-05-22T06:22:43.964Z,18.10
2019-05-22T06:25:15.560Z,18.10
2019-05-22T06:27:58.263Z,18.10
2019-05-22T06:30:46.298Z,18.20
2019-05-22T06:33:30.503Z,18.30
2019-05-22T06:36:04.738Z,18.30
2019-05-22T06:39:00.837Z,18.30
2019-05-22T06:41:35.263Z,18.50
2019-05-22T06:44:40.773Z,18.60
2019-05-22T06:47:17.827Z,18.70
2019-05-22T06:49:55.334Z,18.90
2019-05-22T06:52:25.907Z,19.20
2019-05-22T06:54:56.996Z,19.40
2019-05-22T06:57:29.601Z,19.60
2019-05-22T07:00:12.998Z,19.80
2019-05-22T07:02:37.555Z,19.90
2019-05-22T07:05:08.403Z,20.10
2019-05-22T07:07:39.402Z,20.10
2019-05-22T07:10:11.941Z,20.30
2019-05-22T07:12:43.839Z,20.50
2019-05-22T07:15:52.388Z,20.60
2019-05-22T07:18:29.646Z,20.50
2019-05-22T07:21:00.164Z,20.60
2019-05-22T07:23:32.975Z,20.80
2019-05-22T07:26:04.160Z,21.00
2019-05-22T07:28:34.795Z,21.40
2019-05-22T07:31:05.485Z,21.70
2019-05-22T07:33:35.985Z,22.10
2019-05-22T07:36:09.973Z,22.60
2019-05-22T07:38:38.722Z,22.90
2019-05-22T07:41:09.687Z,23.20
2019-05-22T07:43:41.630Z,23.20
2019-05-22T07:46:12.136Z,23.00
2019-05-22T07:48:42.598Z,22.90
2019-05-22T07:51:13.252Z,23.10
2019-05-22T07:53:43.618Z,23.00
2019-05-22T07:56:15.603Z,22.80
2019-05-22T07:58:46.191Z,22.60
2019-05-22T08:01:17.315Z,22.40
2019-05-22T08:03:49.393Z,22.30
2019-05-22T08:06:20.067Z,22.20
2019-05-22T08:08:50.921Z,22.00
2019-05-22T08:11:22.478Z,21.80
2019-05-22T08:13:53.411Z,21.70
2019-05-22T08:16:24.085Z,21.60
2019-05-22T08:18:54.431Z,21.60
2019-05-22T08:21:24.910Z,21.60
2019-05-22T08:23:55.774Z,21.60
2019-05-22T08:26:27.052Z,21.80
2019-05-22T08:28:57.928Z,21.80
2019-05-22T08:31:29.213Z,21.80
2019-05-22T08:33:59.671Z,21.70
2019-05-22T08:36:31.070Z,21.70
2019-05-22T08:39:01.807Z,21.90
2019-05-22T08:41:36.007Z,22.00
2019-05-22T08:44:17.097Z,22.10
2019-05-22T08:46:40.207Z,22.10
2019-05-22T08:49:11.481Z,22.10
2019-05-22T08:51:41.831Z,22.10
2019-05-22T08:54:13.704Z,21.90
2019-05-22T08:56:48.573Z,21.80
2019-05-22T08:59:20.350Z,21.70
2019-05-22T09:01:51.144Z,21.60
2019-05-22T09:04:21.651Z,21.60
2019-05-22T09:06:52.420Z,21.40
2019-05-22T09:09:23.389Z,21.40
2019-05-22T09:11:53.849Z,21.40
2019-05-22T09:14:24.289Z,21.50
2019-05-22T09:16:56.121Z,21.40
2019-05-22T09:19:26.641Z,21.40
2019-05-22T09:21:57.880Z,21.40
2019-05-22T09:24:28.319Z,21.30
2019-05-22T09:27:02.617Z,21.30
2019-05-22T09:29:31.187Z,21.50
2019-05-22T09:32:01.810Z,21.50
2019-05-22T09:34:32.438Z,21.50
2019-05-22T09:37:03.108Z,21.60
2019-05-22T09:39:33.668Z,21.60
2019-05-22T09:42:04.163Z,21.70
2019-05-22T09:44:34.507Z,21.80
2019-05-22T09:47:05.272Z,21.80
2019-05-22T09:49:35.716Z,21.80
2019-05-22T09:52:08.274Z,21.90
2019-05-22T09:54:39.204Z,21.90
2019-05-22T09:57:10.071Z,22.00
2019-05-22T09:59:40.494Z,22.00
2019-05-22T10:02:11.010Z,22.00
2019-05-22T10:04:41.368Z,21.90
2019-05-22T10:07:12.002Z,22.00
2019-05-22T10:09:42.311Z,22.00
2019-05-22T10:12:13.050Z,21.90
2019-05-22T10:14:43.391Z,22.00
2019-05-22T10:17:13.847Z,22.10
2019-05-22T10:19:44.428Z,22.20
2019-05-22T10:22:15.801Z,22.40
2019-05-22T10:24:50.058Z,22.60
2019-05-22T10:27:18.867Z,22.90
2019-05-22T10:29:49.741Z,23.10
2019-05-22T10:32:20.071Z,23.20
2019-05-22T10:34:50.602Z,23.40
2019-05-22T10:37:21.127Z,23.70
2019-05-22T10:39:51.486Z,24.10
2019-05-22T10:42:22.035Z,24.10
2019-05-22T10:44:52.492Z,24.20
2019-05-22T10:47:23.564Z,24.10
2019-05-22T10:49:54.027Z,24.10
2019-05-22T10:52:24.620Z,23.90
2019-05-22T10:54:56.074Z,23.80
2019-05-22T10:57:27.199Z,23.70
2019-05-22T10:59:57.657Z,23.80
2019-05-22T11:02:28.423Z,23.50
2019-05-22T11:04:59.103Z,23.30
2019-05-22T11:07:29.768Z,23.20
2019-05-22T11:10:01.136Z,23.00
2019-05-22T11:12:31.929Z,22.70
2019-05-22T11:15:03.396Z,22.40
2019-05-22T11:17:34.120Z,22.40
2019-05-22T11:20:05.199Z,22.50
2019-05-22T11:22:36.382Z,22.60
2019-05-22T11:25:08.780Z,22.70
2019-05-22T11:27:40.195Z,23.00
2019-05-22T11:30:11.389Z,23.20
2019-05-22T11:32:42.004Z,23.50
2019-05-22T11:35:13.104Z,23.60
2019-05-22T11:37:43.480Z,23.50
2019-05-22T11:40:14.446Z,23.60
2019-05-22T11:42:44.908Z,23.40
2019-05-22T11:45:16.265Z,23.30
2019-05-22T11:47:46.815Z,23.10
2019-05-22T11:50:17.524Z,22.80
2019-05-22T11:52:47.859Z,22.70
2019-05-22T11:55:18.660Z,22.70
2019-05-22T11:57:49.019Z,22.70
2019-05-22T12:00:20.711Z,22.60
2019-05-22T12:02:51.512Z,22.70
2019-05-22T12:05:22.863Z,22.70
2019-05-22T12:07:53.325Z,22.70
2019-05-22T12:10:24.485Z,22.60
2019-05-22T12:12:56.106Z,22.60
2019-05-22T12:15:29.654Z,22.40
2019-05-22T12:18:00.098Z,22.40
2019-05-22T12:20:31.558Z,22.30
2019-05-22T12:23:02.027Z,22.10
2019-05-22T12:25:32.462Z,22.10
2019-05-22T12:28:02.838Z,22.10
2019-05-22T12:30:33.334Z,22.10
2019-05-22T12:33:12.720Z,22.10
2019-05-22T12:35:36.671Z,22.20
2019-05-22T12:38:07.442Z,22.30
2019-05-22T12:40:38.591Z,22.40
2019-05-22T12:43:09.223Z,22.40
2019-05-22T12:45:39.774Z,22.40
2019-05-22T12:48:10.712Z,22.40
2019-05-22T12:50:41.195Z,22.40
2019-05-22T12:53:13.935Z,22.50
2019-05-22T12:55:44.293Z,22.60
2019-05-22T12:58:14.778Z,22.60
2019-05-22T13:00:45.162Z,22.70
2019-05-22T13:03:15.597Z,22.60
2019-05-22T13:05:47.252Z,22.60
2019-05-22T13:08:18.123Z,22.60
2019-05-22T13:10:48.776Z,22.50
2019-05-22T13:13:19.948Z,22.40
2019-05-22T13:15:50.582Z,22.40
2019-05-22T13:18:21.870Z,22.30
2019-05-22T13:20:53.019Z,22.40
2019-05-22T13:23:24.692Z,22.40
2019-05-22T13:25:55.664Z,22.40
2019-05-22T13:28:26.756Z,22.40
2019-05-22T13:30:57.307Z,22.40
2019-05-22T13:33:29.080Z,22.50
2019-05-22T13:35:59.530Z,22.50
2019-05-22T13:38:30.190Z,22.60
2019-05-22T13:41:00.535Z,22.70
2019-05-22T13:43:31.114Z,22.70
2019-05-22T13:46:01.652Z,22.60
2019-05-22T13:48:32.487Z,22.60
2019-05-22T13:51:03.244Z,22.50
2019-05-22T13:53:34.591Z,22.60
2019-05-22T13:56:05.129Z,22.70
2019-05-22T13:58:36.772Z,22.70
2019-05-22T14:01:07.323Z,22.70
2019-05-22T14:03:37.682Z,22.80
2019-05-22T14:06:08.234Z,22.80
2019-05-22T14:08:38.672Z,22.90
2019-05-22T14:11:09.698Z,22.90
2019-05-22T14:13:40.459Z,22.80
2019-05-22T14:16:11.106Z,22.70
2019-05-22T14:18:41.470Z,22.60
2019-05-22T14:21:12.157Z,22.50
2019-05-22T14:23:42.511Z,22.30
2019-05-22T14:26:12.855Z,22.20
2019-05-22T14:28:43.304Z,22.10
2019-05-22T14:31:13.810Z,22.00
2019-05-22T14:33:44.148Z,21.90
2019-05-22T14:36:14.854Z,21.80
2019-05-22T14:38:46.334Z,21.70
2019-05-22T14:41:17.236Z,21.60
2019-05-22T14:43:47.623Z,21.50
2019-05-22T14:46:18.083Z,21.40
2019-05-22T14:48:48.450Z,21.30
2019-05-22T14:51:20.321Z,21.20
2019-05-22T14:53:52.106Z,21.30
2019-05-22T14:56:23.243Z,21.30
2019-05-22T14:58:54.679Z,21.30
2019-05-22T15:01:26.545Z,21.40
2019-05-22T15:03:56.985Z,21.60
2019-05-22T15:06:27.855Z,21.70
2019-05-22T15:08:58.209Z,21.80
2019-05-22T15:11:29.007Z,21.80
2019-05-22T15:13:59.349Z,21.70
2019-05-22T15:16:29.708Z,21.80
2019-05-22T15:19:00.055Z,22.00
2019-05-22T15:21:30.720Z,22.10
2019-05-22T15:24:01.687Z,22.20
2019-05-22T15:26:32.014Z,22.30
2019-05-22T15:29:02.426Z,22.30
2019-05-22T15:31:32.914Z,22.40
2019-05-22T15:34:04.199Z,22.50
2019-05-22T15:36:34.559Z,22.60
2019-05-22T15:39:08.145Z,22.60
2019-05-22T15:41:39.375Z,22.60
2019-05-22T15:44:09.942Z,22.50
2019-05-22T15:46:41.372Z,22.40
2019-05-22T15:49:13.123Z,22.30
2019-05-22T15:51:45.138Z,22.30
2019-05-22T15:54:18.502Z,22.20
2019-05-22T15:56:49.030Z,22.00
2019-05-22T15:59:21.056Z,21.80
2019-05-22T16:01:51.622Z,21.60
2019-05-22T16:04:23.237Z,21.50
2019-05-22T16:06:54.887Z,21.40
2019-05-22T16:09:27.736Z,21.30
2019-05-22T16:11:58.186Z,21.20
2019-05-22T16:14:29.342Z,21.10
2019-05-22T16:16:59.723Z,20.90
2019-05-22T16:19:31.035Z,20.90
2019-05-22T16:22:05.075Z,20.80
2019-05-22T16:24:36.535Z,20.70
2019-05-22T16:27:08.348Z,20.60
2019-05-22T16:29:38.999Z,20.50
2019-05-22T16:32:12.223Z,20.40
2019-05-22T16:34:43.384Z,20.30
2019-05-22T16:37:14.418Z,20.20
2019-05-22T16:39:50.121Z,20.10
2019-05-22T16:42:19.370Z,20.00
2019-05-22T16:44:49.726Z,19.90
2019-05-22T16:47:20.631Z,19.90
2019-05-22T16:49:53.127Z,19.80
2019-05-22T16:52:25.410Z,19.80
2019-05-22T16:54:56.347Z,19.70
2019-05-22T16:57:27.090Z,19.60
2019-05-22T16:59:58.075Z,19.50
2019-05-22T17:02:30.188Z,19.40
2019-05-22T17:05:02.225Z,19.30
2019-05-22T17:07:33.916Z,19.20
2019-05-22T17:10:04.687Z,19.10
2019-05-22T17:12:35.298Z,19.00
2019-05-22T17:15:06.002Z,19.00
2019-05-22T17:17:36.543Z,19.00
2019-05-22T17:20:07.758Z,18.90
2019-05-22T17:22:38.885Z,18.90
2019-05-22T17:25:09.835Z,18.80
2019-05-22T17:27:40.702Z,18.70
2019-05-22T17:30:11.968Z,18.70
2019-05-22T17:32:42.707Z,18.60
2019-05-22T17:35:14.546Z,18.50
2019-05-22T17:37:46.128Z,18.40
2019-05-22T17:40:18.543Z,18.20
2019-05-22T17:42:50.087Z,18.10
2019-05-22T17:45:23.139Z,18.10
2019-05-22T17:47:54.721Z,18.00
2019-05-22T17:50:27.845Z,17.90
2019-05-22T17:52:58.994Z,17.80
2019-05-22T17:55:30.036Z,17.70
2019-05-22T17:58:00.548Z,17.60
2019-05-22T18:00:37.510Z,17.40
2019-05-22T18:03:08.411Z,17.30
2019-05-22T18:05:38.712Z,17.30
2019-05-22T18:08:09.463Z,17.20
2019-05-22T18:10:41.726Z,17.10
2019-05-22T18:13:12.964Z,17.00
2019-05-22T18:15:43.913Z,16.90
2019-05-22T18:18:14.867Z,16.80
2019-05-22T18:20:45.238Z,16.70
2019-05-22T18:23:15.723Z,16.60
2019-05-22T18:25:46.175Z,16.60
2019-05-22T18:28:17.148Z,16.60
2019-05-22T18:30:47.517Z,16.50
2019-05-22T18:33:17.867Z,16.30
2019-05-22T18:35:48.310Z,16.20
2019-05-22T18:38:18.667Z,16.10
2019-05-22T18:40:49.254Z,16.00
2019-05-22T18:43:22.854Z,15.90
2019-05-22T18:45:51.900Z,15.80
2019-05-22T18:48:22.251Z,15.60
2019-05-22T18:50:53.735Z,15.50
2019-05-22T18:53:24.080Z,15.50
2019-05-22T18:55:54.435Z,15.40
2019-05-22T18:58:25.197Z,15.30
2019-05-22T19:00:55.679Z,15.10
2019-05-22T19:03:26.216Z,15.10
2019-05-22T19:05:56.764Z,15.00
2019-05-22T19:08:27.203Z,15.00
2019-05-22T19:10:57.501Z,15.00
2019-05-22T19:13:27.947Z,14.90
2019-05-22T19:15:58.699Z,14.90
2019-05-22T19:18:29.047Z,14.80
2019-05-22T19:20:59.690Z,14.80
2019-05-22T19:23:30.151Z,14.70
2019-05-22T19:26:00.494Z,14.70
2019-05-22T19:28:42.915Z,14.60
2019-05-22T19:31:03.786Z,14.60
2019-05-22T19:33:34.174Z,14.60
2019-05-22T19:36:04.767Z,14.50
2019-05-22T19:38:35.114Z,14.50
2019-05-22T19:41:05.706Z,14.40
2019-05-22T19:43:36.063Z,14.30
2019-05-22T19:46:06.703Z,14.20
2019-05-22T19:48:37.255Z,14.10
2019-05-22T19:51:07.598Z,14.10
2019-05-22T19:53:38.252Z,14.00
2019-05-22T19:56:08.718Z,14.00
2019-05-22T19:58:39.376Z,14.00
2019-05-22T20:01:10.539Z,13.90
2019-05-22T20:03:40.983Z,13.90
2019-05-22T20:06:12.499Z,13.80
2019-05-22T20:08:43.538Z,13.80
2019-05-22T20:11:14.399Z,13.70
2019-05-22T20:13:44.903Z,13.60
2019-05-22T20:16:15.631Z,13.50
2019-05-22T20:18:46.385Z,13.50
2019-05-22T20:21:16.930Z,13.40
2019-05-22T20:23:47.706Z,13.40
2019-05-22T20:26:18.270Z,13.40
2019-05-22T20:28:48.723Z,13.40
2019-05-22T20:31:19.255Z,13.30
2019-05-22T20:33:49.918Z,13.30
2019-05-22T20:36:20.401Z,13.30
2019-05-22T20:38:50.843Z,13.20
2019-05-22T20:41:22.307Z,13.20
2019-05-22T20:43:53.092Z,13.20
2019-05-22T20:46:23.619Z,13.20
2019-05-22T20:48:54.277Z,13.10
2019-05-22T20:51:26.195Z,13.10
2019-05-22T20:53:57.645Z,13.10
2019-05-22T20:56:29.510Z,13.10
2019-05-22T20:59:01.315Z,13.10
2019-05-22T21:01:33.170Z,13.10
2019-05-22T21:04:06.420Z,13.20
2019-05-22T21:06:44.251Z,13.10
2019-05-22T21:09:15.460Z,13.10
2019-05-22T21:11:46.498Z,13.10
2019-05-22T21:14:16.883Z,13.10
2019-05-22T21:16:47.826Z,13.00
2019-05-22T21:19:18.827Z,12.90
2019-05-22T21:21:49.450Z,12.90
2019-05-22T21:24:19.817Z,12.80
2019-05-22T21:26:50.788Z,12.80
2019-05-22T21:29:21.191Z,12.70
2019-05-22T21:31:51.951Z,12.60
2019-05-22T21:34:22.606Z,12.50
2019-05-22T21:36:53.664Z,12.40
2019-05-22T21:39:24.479Z,12.30
2019-05-22T21:41:54.842Z,12.30
2019-05-22T21:44:25.282Z,12.30
2019-05-22T21:46:56.014Z,12.30
2019-05-22T21:49:28.477Z,12.20
2019-05-22T21:51:59.599Z,12.20
2019-05-22T21:54:31.391Z,12.20
2019-05-22T21:57:02.131Z,12.20
2019-05-22T21:59:32.778Z,12.20
2019-05-22T22:02:15.851Z,12.20
2019-05-22T22:04:46.302Z,12.20
2019-05-22T22:07:17.074Z,12.20
2019-05-22T22:09:49.624Z,12.10
2019-05-22T22:12:22.991Z,12.20
2019-05-22T22:14:54.054Z,12.20
2019-05-22T22:17:26.519Z,12.10
2019-05-22T22:19:56.979Z,12.10
2019-05-22T22:22:29.506Z,12.00
2019-05-22T22:25:00.815Z,12.10
2019-05-22T22:27:31.479Z,12.10
2019-05-22T22:30:03.411Z,12.20
2019-05-22T22:32:34.180Z,12.20
2019-05-22T22:35:05.254Z,12.30
2019-05-22T22:37:36.195Z,12.30
2019-05-22T22:40:07.951Z,12.30
2019-05-22T22:42:40.017Z,12.20
2019-05-22T22:45:18.830Z,12.20
2019-05-22T22:47:50.971Z,12.20
2019-05-22T22:50:23.131Z,12.20
2019-05-22T22:52:54.363Z,12.30
2019-05-22T22:55:25.821Z,12.30
2019-05-22T22:57:56.954Z,12.40
2019-05-22T23:00:36.530Z,12.40
2019-05-22T23:03:10.903Z,12.50
2019-05-22T23:05:42.388Z,12.50
2019-05-22T23:08:15.971Z,12.50
2019-05-22T23:10:47.119Z,12.50
2019-05-22T23:13:18.114Z,12.50
2019-05-22T23:15:49.992Z,12.50
2019-05-22T23:19:11.102Z,12.50
2019-05-22T23:21:40.292Z,12.50
2019-05-22T23:24:10.690Z,12.50
2019-05-22T23:26:41.739Z,12.50
2019-05-22T23:29:12.516Z,12.50
2019-05-22T23:31:42.959Z,12.50
2019-05-22T23:34:13.617Z,12.50
2019-05-22T23:36:45.251Z,12.50
2019-05-22T23:39:17.428Z,12.60
2019-05-22T23:41:48.081Z,12.60
2019-05-22T23:44:21.462Z,12.70
2019-05-22T23:46:52.493Z,12.70
2019-05-22T23:49:23.033Z,12.70
2019-05-22T23:51:53.746Z,12.70
2019-05-22T23:54:24.591Z,12.80
2019-05-22T23:56:55.644Z,12.80
2019-05-22T23:59:27.806Z,12.80
